Time;durP1;ratioP1;P1;durP2;ratioP2;P2;SDS_P1;SDS_P2;PMS_P1;PMS_P2;Temp;Humidity;BMP_temperature;BMP_pressure;BME280_temperature;BME280_humidity;BME280_pressure;Samples;Min_cycle;Max_cycle;Signal;HPM_P1;HPM_P2
2022/01/03 00:01:44;;;;;;;11.30;2.15;;;;;;;;;;5090340;28;20028;-61
2022/01/03 00:04:10;;;;;;;13.20;2.13;;;;;;;;;;5090598;28;20036;-59
2022/01/03 00:06:38;;;;;;;17.65;2.05;;;;;;;;;;5088879;28;20090;-60
2022/01/03 00:09:04;;;;;;;15.45;3.33;;;;;;;;;;5089967;28;20458;-61
2022/01/03 00:11:31;;;;;;;20.65;3.53;;;;;;;;;;5090225;28;20040;-62
2022/01/03 00:13:57;;;;;;;15.25;2.50;;;;;;;;;;5090048;28;20054;-60
2022/01/03 00:16:24;;;;;;;15.60;2.00;;;;;;;;;;5087465;28;20044;-60
2022/01/03 00:18:54;;;;;;;15.73;2.13;;;;;;;;;;5090071;28;20036;-61
2022/01/03 00:21:21;;;;;;;20.13;2.63;;;;;;;;;;5090139;28;20040;-59
2022/01/03 00:23:49;;;;;;;19.65;2.85;;;;;;;;;;5088732;28;20075;-59
2022/01/03 00:26:19;;;;;;;16.77;2.75;;;;;;;;;;5089123;28;20135;-61
2022/01/03 00:28:51;;;;;;;17.33;2.10;;;;;;;;;;5089440;28;20051;-60
2022/01/03 00:31:18;;;;;;;16.20;2.80;;;;;;;;;;5089295;28;20036;-59
2022/01/03 00:33:46;;;;;;;17.05;2.60;;;;;;;;;;5090252;28;20087;-60
2022/01/03 00:36:12;;;;;;;14.20;2.08;;;;;;;;;;5090105;28;20032;-62
2022/01/03 00:38:38;;;;;;;14.13;2.40;;;;;;;;;;5090102;28;20029;-60
2022/01/03 00:41:04;;;;;;;12.75;3.05;;;;;;;;;;5089933;28;20043;-62
2022/01/03 00:43:31;;;;;;;23.30;3.42;;;;;;;;;;5089731;28;20386;-61
2022/01/03 00:45:58;;;;;;;17.08;2.35;;;;;;;;;;5089473;28;20048;-60
2022/01/03 00:48:24;;;;;;;14.68;2.50;;;;;;;;;;5090339;28;20576;-59
2022/01/03 00:50:51;;;;;;;17.30;2.97;;;;;;;;;;5089014;28;20028;-60
2022/01/03 00:53:17;;;;;;;19.65;2.55;;;;;;;;;;5090012;28;20057;-61
2022/01/03 00:55:49;;;;;;;16.77;1.77;;;;;;;;;;5089804;28;20036;-60
2022/01/03 00:58:19;;;;;;;24.15;3.15;;;;;;;;;;5090180;28;20499;-61
2022/01/03 01:00:46;;;;;;;21.52;2.72;;;;;;;;;;5089580;28;20090;-60
2022/01/03 01:03:15;;;;;;;18.88;2.55;;;;;;;;;;5090297;28;20040;-60
2022/01/03 01:05:51;;;;;;;20.38;2.85;;;;;;;;;;5089188;28;20047;-60
2022/01/03 01:08:21;;;;;;;21.90;3.15;;;;;;;;;;5089846;28;20040;-59
2022/01/03 01:10:50;;;;;;;22.58;2.55;;;;;;;;;;5089752;28;20040;-61
2022/01/03 01:13:17;;;;;;;21.13;2.60;;;;;;;;;;5087837;28;20083;-62
2022/01/03 01:15:44;;;;;;;25.05;3.70;;;;;;;;;;5119078;27;20047;-61
2022/01/03 01:18:10;;;;;;;17.65;2.92;;;;;;;;;;5089818;28;20406;-60
2022/01/03 01:20:37;;;;;;;15.88;2.45;;;;;;;;;;5089805;28;20043;-60
2022/01/03 01:23:04;;;;;;;15.75;2.70;;;;;;;;;;5089656;28;20482;-60
2022/01/03 01:28:06;;;;;;;22.10;4.10;;;;;;;;;;5089283;28;20051;-59
2022/01/03 01:30:33;;;;;;;22.88;2.50;;;;;;;;;;5089099;28;20040;-59
2022/01/03 01:32:59;;;;;;;20.80;2.50;;;;;;;;;;5089503;28;20105;-59
2022/01/03 01:35:29;;;;;;;23.52;2.78;;;;;;;;;;5089149;28;20048;-59
2022/01/03 01:37:55;;;;;;;18.95;2.42;;;;;;;;;;5089425;28;20446;-61
2022/01/03 01:40:23;;;;;;;20.50;2.05;;;;;;;;;;5089652;28;20089;-59
2022/01/03 01:42:49;;;;;;;16.80;2.05;;;;;;;;;;5091041;28;20048;-60
2022/01/03 01:45:18;;;;;;;23.48;2.92;;;;;;;;;;5091216;28;20081;-58
2022/01/03 01:47:45;;;;;;;17.80;2.60;;;;;;;;;;5092954;28;20402;-60
2022/01/03 01:50:11;;;;;;;14.13;2.05;;;;;;;;;;5090763;28;20051;-61
2022/01/03 01:52:37;;;;;;;17.88;3.03;;;;;;;;;;5093364;28;20502;-59
2022/01/03 01:55:14;;;;;;;16.75;2.38;;;;;;;;;;5091307;28;20085;-60
2022/01/03 01:57:59;;;;;;;17.95;3.15;;;;;;;;;;5090259;28;20482;-60
2022/01/03 02:00:26;;;;;;;23.08;2.55;;;;;;;;;;5092112;28;20150;-62
2022/01/03 02:03:15;;;;;;;20.20;2.42;;;;;;;;;;5093067;28;20040;-59
2022/01/03 02:05:42;;;;;;;19.75;2.42;;;;;;;;;;5046593;28;20459;-61
2022/01/03 02:08:12;;;;;;;18.13;2.40;;;;;;;;;;5030054;28;20111;-63
2022/01/03 02:10:41;;;;;;;20.05;3.17;;;;;;;;;;5029744;28;20107;-60
2022/01/03 02:13:07;;;;;;;17.90;2.67;;;;;;;;;;5029463;28;20041;-60
2022/01/03 02:15:34;;;;;;;19.25;3.00;;;;;;;;;;5029895;28;20044;-61
2022/01/03 02:18:00;;;;;;;14.88;2.40;;;;;;;;;;5030022;28;20060;-61
2022/01/03 02:20:28;;;;;;;22.10;4.05;;;;;;;;;;5029591;28;20044;-59
2022/01/03 02:22:54;;;;;;;15.98;2.72;;;;;;;;;;5030322;28;20453;-60
2022/01/03 02:25:21;;;;;;;22.33;3.35;;;;;;;;;;5013366;28;20081;-59
2022/01/03 02:27:49;;;;;;;24.85;3.38;;;;;;;;;;5029585;28;20128;-62
2022/01/03 02:30:16;;;;;;;22.45;3.17;;;;;;;;;;5013108;28;20049;-59
2022/01/03 02:32:42;;;;;;;21.70;2.88;;;;;;;;;;5013335;28;20041;-59
2022/01/03 02:35:09;;;;;;;19.23;2.65;;;;;;;;;;5029505;28;20078;-60
2022/01/03 02:37:35;;;;;;;16.73;2.40;;;;;;;;;;5029778;28;20395;-62
2022/01/03 02:40:01;;;;;;;18.95;3.22;;;;;;;;;;5029602;28;20507;-60
2022/01/03 02:42:27;;;;;;;15.52;3.17;;;;;;;;;;5055068;28;20071;-59
2022/01/03 02:45:01;;;;;;;24.60;2.88;;;;;;;;;;5092113;28;20043;-61
2022/01/03 02:47:27;;;;;;;16.73;3.22;;;;;;;;;;5091779;28;20043;-60
2022/01/03 02:49:53;;;;;;;19.55;3.22;;;;;;;;;;5091715;28;20051;-58
2022/01/03 02:52:19;;;;;;;24.65;2.53;;;;;;;;;;5091703;28;20040;-60
2022/01/03 02:54:45;;;;;;;23.23;3.55;;;;;;;;;;5091187;28;20090;-59
2022/01/03 02:57:11;;;;;;;24.08;3.22;;;;;;;;;;5091869;28;20126;-61
2022/01/03 02:59:37;;;;;;;20.10;3.55;;;;;;;;;;5091520;28;20562;-60
2022/01/03 03:02:05;;;;;;;22.90;2.75;;;;;;;;;;5091534;28;20068;-59
2022/01/03 03:04:31;;;;;;;19.40;2.63;;;;;;;;;;5091047;28;20040;-59
2022/01/03 03:06:57;;;;;;;20.85;3.03;;;;;;;;;;5091776;28;20093;-60
2022/01/03 03:09:23;;;;;;;20.27;2.90;;;;;;;;;;5089575;28;20052;-60
2022/01/03 03:11:50;;;;;;;23.00;2.55;;;;;;;;;;5089811;28;20039;-60
2022/01/03 03:14:16;;;;;;;20.70;2.53;;;;;;;;;;5091256;28;20036;-60
2022/01/03 03:16:42;;;;;;;21.45;2.90;;;;;;;;;;5091317;28;20032;-59
2022/01/03 03:19:09;;;;;;;26.00;3.75;;;;;;;;;;5091419;28;20063;-60
2022/01/03 03:21:35;;;;;;;19.48;3.22;;;;;;;;;;5091122;28;20028;-58
2022/01/03 03:24:01;;;;;;;26.33;3.83;;;;;;;;;;5090203;28;20065;-60
2022/01/03 03:26:27;;;;;;;28.35;3.28;;;;;;;;;;5089873;28;20048;-59
2022/01/03 03:28:54;;;;;;;23.13;3.63;;;;;;;;;;5091435;28;20077;-61
2022/01/03 03:31:20;;;;;;;20.58;2.97;;;;;;;;;;5091256;28;20138;-59
2022/01/03 03:33:46;;;;;;;16.52;2.40;;;;;;;;;;5090476;28;20043;-60
2022/01/03 03:36:12;;;;;;;24.63;2.75;;;;;;;;;;5090440;28;20048;-58
2022/01/03 03:38:38;;;;;;;21.45;3.75;;;;;;;;;;5090649;28;20043;-59
2022/01/03 03:41:04;;;;;;;24.05;3.63;;;;;;;;;;5091251;28;20032;-61
2022/01/03 03:43:30;;;;;;;19.38;2.47;;;;;;;;;;5090806;28;20551;-61
2022/01/03 03:45:56;;;;;;;27.42;3.45;;;;;;;;;;5090746;28;20040;-59
2022/01/03 03:48:22;;;;;;;24.38;3.85;;;;;;;;;;5090755;28;20062;-60
2022/01/03 03:50:48;;;;;;;26.85;3.33;;;;;;;;;;5090792;28;20032;-61
2022/01/03 03:53:16;;;;;;;22.40;2.33;;;;;;;;;;5089364;28;20040;-60
2022/01/03 03:55:43;;;;;;;20.05;3.58;;;;;;;;;;5089626;28;20050;-60
2022/01/03 03:58:09;;;;;;;22.83;3.55;;;;;;;;;;5089574;28;20035;-61
2022/01/03 04:00:35;;;;;;;20.17;3.22;;;;;;;;;;5090185;28;20055;-59
2022/01/03 04:03:01;;;;;;;23.08;3.35;;;;;;;;;;5090713;28;20051;-58
2022/01/03 04:05:28;;;;;;;26.65;2.80;;;;;;;;;;5089642;28;20051;-60
2022/01/03 04:07:54;;;;;;;23.52;2.85;;;;;;;;;;5090039;28;20036;-59
2022/01/03 04:10:20;;;;;;;26.45;3.50;;;;;;;;;;5089369;28;20536;-60
2022/01/03 04:12:46;;;;;;;20.35;3.60;;;;;;;;;;5089964;28;20036;-60
2022/01/03 04:15:12;;;;;;;28.83;3.42;;;;;;;;;;5089301;28;20044;-59
2022/01/03 04:17:39;;;;;;;19.95;2.78;;;;;;;;;;5090243;28;20032;-60
2022/01/03 04:20:05;;;;;;;30.42;3.97;;;;;;;;;;5090140;28;20028;-60
2022/01/03 04:22:31;;;;;;;29.27;3.67;;;;;;;;;;5090211;28;20563;-58
2022/01/03 04:24:58;;;;;;;22.80;2.88;;;;;;;;;;5089452;28;20048;-60
2022/01/03 04:27:24;;;;;;;25.77;3.03;;;;;;;;;;5090052;28;20048;-59
2022/01/03 04:29:50;;;;;;;22.92;2.70;;;;;;;;;;5087463;28;20490;-58
2022/01/03 04:32:16;;;;;;;21.83;3.15;;;;;;;;;;5090259;28;20479;-61
2022/01/03 04:34:42;;;;;;;25.92;3.42;;;;;;;;;;5090092;28;20133;-60
2022/01/03 04:37:09;;;;;;;28.80;4.40;;;;;;;;;;5089579;28;20040;-60
2022/01/03 04:39:35;;;;;;;24.35;3.40;;;;;;;;;;5090294;28;20032;-60
2022/01/03 04:42:01;;;;;;;27.42;3.47;;;;;;;;;;5088689;28;20040;-59
2022/01/03 04:44:27;;;;;;;23.60;4.40;;;;;;;;;;5090408;28;20556;-58
2022/01/03 04:46:55;;;;;;;21.42;3.03;;;;;;;;;;5089629;28;20028;-60
2022/01/03 04:49:21;;;;;;;24.77;3.45;;;;;;;;;;5089465;28;20101;-60
2022/01/03 04:51:47;;;;;;;31.90;5.32;;;;;;;;;;5088880;28;20040;-60
2022/01/03 04:54:13;;;;;;;22.90;3.75;;;;;;;;;;5089559;28;20111;-61
2022/01/03 04:56:39;;;;;;;23.65;3.63;;;;;;;;;;5089882;28;20119;-60
2022/01/03 04:59:05;;;;;;;28.08;4.57;;;;;;;;;;5089869;28;20082;-58
2022/01/03 05:01:31;;;;;;;20.73;3.42;;;;;;;;;;5088437;28;20032;-59
2022/01/03 05:03:57;;;;;;;32.88;3.92;;;;;;;;;;5089657;28;20456;-59
2022/01/03 05:06:24;;;;;;;23.10;2.88;;;;;;;;;;5089877;28;20040;-59
2022/01/03 05:08:50;;;;;;;26.90;4.20;;;;;;;;;;5088835;28;20071;-59
2022/01/03 05:11:16;;;;;;;29.27;3.83;;;;;;;;;;5089050;28;20036;-60
2022/01/03 05:13:42;;;;;;;24.90;3.80;;;;;;;;;;5089984;28;20089;-59
2022/01/03 05:16:08;;;;;;;26.45;3.28;;;;;;;;;;5088439;28;20055;-59
2022/01/03 05:18:34;;;;;;;26.45;3.80;;;;;;;;;;5093699;28;20046;-59
2022/01/03 05:21:01;;;;;;;34.30;5.88;;;;;;;;;;5091721;28;20051;-62
2022/01/03 05:23:27;;;;;;;25.15;3.15;;;;;;;;;;5093178;28;20060;-59
2022/01/03 05:25:53;;;;;;;36.08;5.15;;;;;;;;;;5093220;28;20571;-60
2022/01/03 05:28:19;;;;;;;23.20;4.55;;;;;;;;;;5093280;28;20086;-60
2022/01/03 05:30:45;;;;;;;26.50;4.30;;;;;;;;;;5093312;28;20032;-58
2022/01/03 05:33:11;;;;;;;22.02;2.97;;;;;;;;;;5090569;28;20098;-60
2022/01/03 05:35:37;;;;;;;24.60;3.13;;;;;;;;;;5093536;28;20048;-62
2022/01/03 05:38:03;;;;;;;33.95;3.95;;;;;;;;;;5093244;28;20090;-62
2022/01/03 05:40:29;;;;;;;24.15;3.05;;;;;;;;;;5092753;28;20191;-61
2022/01/03 05:42:56;;;;;;;25.33;3.58;;;;;;;;;;5093290;28;20501;-59
2022/01/03 05:45:22;;;;;;;24.20;3.53;;;;;;;;;;5091584;28;20085;-59
2022/01/03 05:47:48;;;;;;;34.17;3.92;;;;;;;;;;5093237;28;20436;-59
2022/01/03 05:50:15;;;;;;;23.15;3.80;;;;;;;;;;5092967;28;20044;-60
2022/01/03 05:52:41;;;;;;;24.20;3.55;;;;;;;;;;5092710;28;20437;-60
2022/01/03 05:55:08;;;;;;;26.02;3.50;;;;;;;;;;5091126;28;20151;-60
2022/01/03 05:57:34;;;;;;;25.17;3.42;;;;;;;;;;5092906;28;20829;-60
2022/01/03 06:00:02;;;;;;;21.35;3.60;;;;;;;;;;5090048;28;20035;-60
2022/01/03 06:02:32;;;;;;;22.98;4.68;;;;;;;;;;5091865;28;20040;-60
2022/01/03 06:05:01;;;;;;;30.88;4.00;;;;;;;;;;5091763;28;20065;-58
2022/01/03 06:07:27;;;;;;;30.92;4.45;;;;;;;;;;5090891;28;20080;-60
2022/01/03 06:09:53;;;;;;;21.80;2.95;;;;;;;;;;5090214;28;20052;-59
2022/01/03 06:12:20;;;;;;;20.35;3.38;;;;;;;;;;5092044;28;20489;-58
2022/01/03 06:14:46;;;;;;;28.00;3.35;;;;;;;;;;5092156;28;20048;-60
2022/01/03 06:17:13;;;;;;;31.75;4.15;;;;;;;;;;5092678;28;20032;-60
2022/01/03 06:19:39;;;;;;;28.33;3.28;;;;;;;;;;5092512;28;20535;-59
2022/01/03 06:22:09;;;;;;;22.63;3.67;;;;;;;;;;5092962;28;20032;-59
2022/01/03 06:24:36;;;;;;;22.90;4.47;;;;;;;;;;5091869;28;20119;-60
2022/01/03 06:27:02;;;;;;;24.88;3.30;;;;;;;;;;5092044;28;20100;-61
2022/01/03 06:29:28;;;;;;;24.55;3.40;;;;;;;;;;5091265;28;20162;-58
2022/01/03 06:31:54;;;;;;;29.63;3.70;;;;;;;;;;5092133;28;20131;-61
2022/01/03 06:34:20;;;;;;;31.65;3.63;;;;;;;;;;5092051;28;20074;-59
2022/01/03 06:36:46;;;;;;;31.67;4.88;;;;;;;;;;5091991;28;20119;-60
2022/01/03 06:39:12;;;;;;;31.83;3.53;;;;;;;;;;5090814;28;20040;-60
2022/01/03 06:41:39;;;;;;;20.40;3.90;;;;;;;;;;5092249;28;20040;-60
2022/01/03 06:44:05;;;;;;;34.70;4.47;;;;;;;;;;5091481;28;20094;-60
2022/01/03 06:46:31;;;;;;;30.13;3.97;;;;;;;;;;5091905;28;20050;-61
2022/01/03 06:48:57;;;;;;;24.33;3.60;;;;;;;;;;5090650;28;20040;-60
2022/01/03 06:51:23;;;;;;;30.00;3.92;;;;;;;;;;5092311;28;20048;-59
2022/01/03 06:53:49;;;;;;;29.88;4.57;;;;;;;;;;5091726;28;20626;-60
2022/01/03 06:56:16;;;;;;;32.83;4.55;;;;;;;;;;5090521;28;20569;-59
2022/01/03 06:58:42;;;;;;;32.15;4.57;;;;;;;;;;5091303;28;20070;-61
2022/01/03 07:01:09;;;;;;;26.77;3.30;;;;;;;;;;5091692;28;20071;-60
2022/01/03 07:03:35;;;;;;;31.48;4.22;;;;;;;;;;5090345;28;20505;-61
2022/01/03 07:06:01;;;;;;;40.15;6.30;;;;;;;;;;5090662;28;20478;-60
2022/01/03 07:08:27;;;;;;;33.25;4.72;;;;;;;;;;5091477;28;20040;-60
2022/01/03 07:10:53;;;;;;;28.25;4.32;;;;;;;;;;5091086;28;20119;-59
2022/01/03 07:13:19;;;;;;;33.53;4.68;;;;;;;;;;5091583;28;20438;-60
2022/01/03 07:21:16;;;;;;;38.97;4.15;;;;;;;;;;5090490;28;20036;-60
2022/01/03 07:23:42;;;;;;;33.22;4.55;;;;;;;;;;5090043;28;20071;-60
2022/01/03 07:26:09;;;;;;;37.97;4.65;;;;;;;;;;5090624;28;20056;-61
2022/01/03 07:28:35;;;;;;;37.28;4.35;;;;;;;;;;5091283;28;20044;-59
2022/01/03 07:31:01;;;;;;;30.55;4.15;;;;;;;;;;5090503;28;20035;-60
2022/01/03 07:33:27;;;;;;;41.45;4.68;;;;;;;;;;5091116;28;20070;-61
2022/01/03 07:35:53;;;;;;;32.22;4.47;;;;;;;;;;5090286;28;20921;-59
2022/01/03 07:38:19;;;;;;;33.30;5.00;;;;;;;;;;5090709;28;20047;-62
2022/01/03 07:40:45;;;;;;;38.45;3.90;;;;;;;;;;5090939;28;20460;-60
2022/01/03 07:43:11;;;;;;;30.80;3.75;;;;;;;;;;5089998;28;20423;-60
2022/01/03 07:45:37;;;;;;;36.47;4.72;;;;;;;;;;5090419;28;20533;-61
2022/01/03 07:48:03;;;;;;;31.85;4.57;;;;;;;;;;5090892;28;20478;-62
2022/01/03 07:50:30;;;;;;;31.98;4.85;;;;;;;;;;5090542;28;20173;-60
2022/01/03 07:52:58;;;;;;;30.55;3.88;;;;;;;;;;5089990;28;20075;-60
2022/01/03 07:55:24;;;;;;;33.00;5.22;;;;;;;;;;5090300;28;20062;-62
2022/01/03 07:57:50;;;;;;;40.30;5.32;;;;;;;;;;5090569;28;20082;-62
2022/01/03 08:00:17;;;;;;;28.67;4.20;;;;;;;;;;5090332;28;20052;-62
2022/01/03 08:02:43;;;;;;;35.75;4.38;;;;;;;;;;5089959;28;20119;-60
2022/01/03 08:05:12;;;;;;;29.58;5.18;;;;;;;;;;5089441;28;20142;-60
2022/01/03 08:07:38;;;;;;;30.33;3.80;;;;;;;;;;5091499;28;20044;-61
2022/01/03 08:10:05;;;;;;;32.15;4.63;;;;;;;;;;5090342;28;20051;-61
2022/01/03 08:12:31;;;;;;;32.15;4.70;;;;;;;;;;5090565;28;20040;-60
2022/01/03 08:14:57;;;;;;;35.22;4.70;;;;;;;;;;5090188;28;20047;-60
2022/01/03 08:17:23;;;;;;;29.88;5.13;;;;;;;;;;5090416;28;20146;-62
2022/01/03 08:19:49;;;;;;;32.88;3.92;;;;;;;;;;5089045;28;20112;-60
2022/01/03 08:22:17;;;;;;;37.90;3.97;;;;;;;;;;5090214;28;20478;-60
2022/01/03 08:24:43;;;;;;;35.95;4.97;;;;;;;;;;5090888;28;20402;-61
2022/01/03 08:27:09;;;;;;;25.63;3.55;;;;;;;;;;5090356;28;20156;-61
2022/01/03 08:29:35;;;;;;;33.08;5.15;;;;;;;;;;5090232;28;20636;-62
2022/01/03 08:32:01;;;;;;;25.95;4.97;;;;;;;;;;5090207;28;20028;-61
2022/01/03 08:34:27;;;;;;;29.08;3.95;;;;;;;;;;5090505;28;20047;-60
2022/01/03 08:36:53;;;;;;;27.35;4.28;;;;;;;;;;5090522;28;20059;-61
2022/01/03 08:39:20;;;;;;;31.58;4.32;;;;;;;;;;5090124;28;20040;-60
2022/01/03 08:41:46;;;;;;;34.47;5.25;;;;;;;;;;5090228;28;20029;-61
2022/01/03 08:44:12;;;;;;;24.38;3.78;;;;;;;;;;5090242;28;20374;-60
2022/01/03 08:46:38;;;;;;;28.98;4.03;;;;;;;;;;5090169;28;20036;-62
2022/01/03 08:49:04;;;;;;;24.38;3.58;;;;;;;;;;5090052;28;20115;-61
2022/01/03 08:51:30;;;;;;;38.13;4.53;;;;;;;;;;5090605;28;20077;-61
2022/01/03 08:53:56;;;;;;;25.25;3.58;;;;;;;;;;5094431;28;20040;-61
2022/01/03 08:56:23;;;;;;;30.55;4.32;;;;;;;;;;5093760;28;20369;-61
2022/01/03 08:58:49;;;;;;;27.88;3.90;;;;;;;;;;5094462;28;20074;-61
2022/01/03 09:01:15;;;;;;;25.83;4.40;;;;;;;;;;5093955;28;20501;-61
2022/01/03 09:03:41;;;;;;;32.80;3.90;;;;;;;;;;5094059;28;20039;-59
2022/01/03 09:06:07;;;;;;;26.27;3.40;;;;;;;;;;5094063;28;20036;-60
2022/01/03 09:08:33;;;;;;;30.80;4.65;;;;;;;;;;5093770;28;20115;-63
2022/01/03 09:10:59;;;;;;;29.33;4.30;;;;;;;;;;5094049;28;20047;-59
2022/01/03 09:13:25;;;;;;;30.38;5.57;;;;;;;;;;5093637;28;20044;-60
2022/01/03 09:15:51;;;;;;;22.25;3.80;;;;;;;;;;5093797;28;20040;-61
2022/01/03 09:18:19;;;;;;;32.30;4.00;;;;;;;;;;5093689;28;20440;-62
2022/01/03 09:20:45;;;;;;;34.45;4.18;;;;;;;;;;5125753;27;20378;-60
2022/01/03 09:23:17;;;;;;;26.35;3.53;;;;;;;;;;5093345;28;20039;-61
2022/01/03 09:31:13;;;;;;;26.70;3.67;;;;;;;;;;5093737;28;20036;-59
2022/01/03 09:33:39;;;;;;;24.05;4.20;;;;;;;;;;5093161;28;20044;-60
2022/01/03 09:36:06;;;;;;;28.23;4.00;;;;;;;;;;5093600;28;20036;-60
2022/01/03 09:38:34;;;;;;;31.88;3.95;;;;;;;;;;5093416;28;20068;-60
2022/01/03 09:41:02;;;;;;;33.10;4.25;;;;;;;;;;5093344;28;20046;-62
2022/01/03 09:43:28;;;;;;;27.25;3.97;;;;;;;;;;5093303;28;21042;-60
2022/01/03 09:45:54;;;;;;;29.50;3.90;;;;;;;;;;5091842;28;20032;-61
2022/01/03 09:48:22;;;;;;;23.77;4.97;;;;;;;;;;5096058;28;20075;-60
2022/01/03 09:50:49;;;;;;;26.48;3.45;;;;;;;;;;5093066;28;20044;-60
2022/01/03 09:53:18;;;;;;;22.83;4.28;;;;;;;;;;5093313;28;20040;-61
2022/01/03 09:55:44;;;;;;;28.60;4.13;;;;;;;;;;5092623;28;20123;-63
2022/01/03 09:58:10;;;;;;;23.20;3.65;;;;;;;;;;5093179;28;20111;-60
2022/01/03 10:00:36;;;;;;;29.88;3.97;;;;;;;;;;5092996;28;20040;-62
2022/01/03 10:03:03;;;;;;;31.23;3.88;;;;;;;;;;5092129;28;20256;-61
2022/01/03 10:05:29;;;;;;;28.83;4.07;;;;;;;;;;5093015;28;20044;-60
2022/01/03 10:07:55;;;;;;;25.02;2.90;;;;;;;;;;5092275;28;20040;-60
2022/01/03 10:10:21;;;;;;;26.08;4.35;;;;;;;;;;5092749;28;20039;-62
2022/01/03 10:12:47;;;;;;;27.58;4.13;;;;;;;;;;5093017;28;20040;-62
2022/01/03 10:15:13;;;;;;;26.25;4.82;;;;;;;;;;5088730;28;20040;-61
2022/01/03 10:17:41;;;;;;;28.00;5.13;;;;;;;;;;5092240;28;20308;-61
2022/01/03 10:20:12;;;;;;;26.48;3.80;;;;;;;;;;5092543;28;20036;-59
2022/01/03 10:22:39;;;;;;;25.60;3.60;;;;;;;;;;5090892;28;20059;-59
2022/01/03 10:25:16;;;;;;;29.13;3.85;;;;;;;;;;5090471;28;20067;-61
2022/01/03 10:27:45;;;;;;;25.48;3.60;;;;;;;;;;5092054;28;21082;-60
2022/01/03 10:30:11;;;;;;;29.30;4.10;;;;;;;;;;5092046;28;20044;-60
2022/01/03 10:32:37;;;;;;;28.08;3.90;;;;;;;;;;5091781;28;20075;-61
2022/01/03 10:35:14;;;;;;;36.10;4.43;;;;;;;;;;5091619;28;20043;-60
2022/01/03 10:37:40;;;;;;;23.58;3.50;;;;;;;;;;5092182;28;20040;-62
2022/01/03 10:40:28;;;;;;;29.58;4.50;;;;;;;;;;5091465;28;20032;-61
2022/01/03 10:42:58;;;;;;;29.70;4.80;;;;;;;;;;5091890;28;20119;-60
2022/01/03 10:45:28;;;;;;;31.08;5.25;;;;;;;;;;5091989;28;20044;-60
2022/01/03 10:47:54;;;;;;;30.92;4.15;;;;;;;;;;5088978;28;20043;-62
2022/01/03 10:50:20;;;;;;;27.45;3.97;;;;;;;;;;5091593;28;20390;-61
2022/01/03 10:52:47;;;;;;;24.50;4.78;;;;;;;;;;5092092;28;20036;-61
2022/01/03 10:55:19;;;;;;;23.58;3.92;;;;;;;;;;5091387;28;20036;-60
2022/01/03 10:57:49;;;;;;;30.50;4.40;;;;;;;;;;5091778;28;20478;-60
2022/01/03 11:00:16;;;;;;;32.85;5.10;;;;;;;;;;5089657;28;20128;-60
2022/01/03 11:03:04;;;;;;;23.85;3.33;;;;;;;;;;5091878;28;20394;-61
2022/01/03 11:05:37;;;;;;;27.10;3.60;;;;;;;;;;5091490;28;20044;-60
2022/01/03 11:10:45;;;;;;;29.27;4.72;;;;;;;;;;5090957;28;20123;-60
2022/01/03 11:13:12;;;;;;;34.03;4.13;;;;;;;;;;5090978;28;20122;-62
2022/01/03 11:15:39;;;;;;;24.15;3.63;;;;;;;;;;5090596;28;20044;-61
2022/01/03 11:18:12;;;;;;;22.60;3.67;;;;;;;;;;5090616;28;20035;-61
2022/01/03 11:20:38;;;;;;;27.30;3.95;;;;;;;;;;5090141;28;20068;-60
2022/01/03 11:23:04;;;;;;;28.05;4.10;;;;;;;;;;5090975;28;20396;-61
2022/01/03 11:25:32;;;;;;;27.00;3.85;;;;;;;;;;5089496;28;20063;-61
2022/01/03 11:28:00;;;;;;;21.42;3.38;;;;;;;;;;5089368;28;20450;-61
2022/01/03 11:30:26;;;;;;;22.30;4.10;;;;;;;;;;5091475;28;20093;-60
2022/01/03 11:32:52;;;;;;;18.60;3.13;;;;;;;;;;5091928;28;20082;-60
2022/01/03 11:35:18;;;;;;;26.92;3.55;;;;;;;;;;5091319;28;20048;-62
2022/01/03 11:37:48;;;;;;;25.30;4.80;;;;;;;;;;5091632;28;20036;-61
2022/01/03 11:40:15;;;;;;;24.38;3.20;;;;;;;;;;5091546;28;20050;-60
2022/01/03 11:42:41;;;;;;;33.55;5.07;;;;;;;;;;5084617;28;20106;-61
2022/01/03 11:45:08;;;;;;;25.98;3.50;;;;;;;;;;5091258;28;20044;-62
2022/01/03 11:47:35;;;;;;;28.63;5.13;;;;;;;;;;5091355;28;20127;-59
2022/01/03 11:50:01;;;;;;;29.92;4.72;;;;;;;;;;5091296;28;20107;-61
2022/01/03 11:52:28;;;;;;;26.48;4.40;;;;;;;;;;5090880;28;20498;-61
2022/01/03 11:54:55;;;;;;;21.17;3.67;;;;;;;;;;5091248;28;20036;-61
2022/01/03 11:57:44;;;;;;;31.40;4.85;;;;;;;;;;5091208;28;20406;-62
2022/01/03 12:05:49;;;;;;;29.10;3.72;;;;;;;;;;5091380;28;20047;-61
2022/01/03 12:08:25;;;;;;;28.35;3.38;;;;;;;;;;5090956;28;20458;-61
2022/01/03 12:10:51;;;;;;;31.40;3.45;;;;;;;;;;5091197;28;20122;-60
2022/01/03 12:13:19;;;;;;;25.77;3.42;;;;;;;;;;5090693;28;20044;-61
2022/01/03 12:15:45;;;;;;;23.50;3.40;;;;;;;;;;5091080;28;20048;-61
2022/01/03 12:18:30;;;;;;;19.98;3.60;;;;;;;;;;5072791;28;20035;-61
2022/01/03 12:20:57;;;;;;;22.05;3.47;;;;;;;;;;5089935;28;20039;-63
2022/01/03 12:23:43;;;;;;;23.00;4.25;;;;;;;;;;5089808;28;20554;-62
2022/01/03 12:26:13;;;;;;;24.55;3.13;;;;;;;;;;5090096;28;20062;-60
2022/01/03 12:28:58;;;;;;;28.70;5.07;;;;;;;;;;5090522;28;20085;-60
2022/01/03 12:31:24;;;;;;;29.30;4.53;;;;;;;;;;5090748;28;20043;-61
2022/01/03 12:34:18;;;;;;;30.05;4.88;;;11.20;99.90;;;;;;5090757;28;20036;-61
2022/01/03 12:37:14;;;;;;;28.45;4.95;;;11.50;99.90;;;;;;5090718;28;20371;-60
2022/01/03 12:40:12;;;;;;;26.50;3.88;;;;;;;;;;5089255;28;20075;-60
2022/01/03 12:42:51;;;;;;;25.58;4.03;;;;;;;;;;5027985;28;20049;-60
2022/01/03 12:45:17;;;;;;;30.15;4.53;;;;;;;;;;5028216;28;20057;-60
2022/01/03 12:47:44;;;;;;;30.83;4.63;;;;;;;;;;5011200;28;20562;-61
2022/01/03 12:50:27;;;;;;;34.90;4.82;;;;;;;;;;5028185;28;20053;-61
2022/01/03 12:52:54;;;;;;;33.60;3.97;;;;;;;;;;5027931;28;20256;-60
2022/01/03 12:55:38;;;;;;;22.90;3.88;;;;;;;;;;5011601;28;20102;-60
2022/01/03 12:58:04;;;;;;;28.60;5.22;;;;;;;;;;5028129;28;20128;-60
2022/01/03 13:00:39;;;;;;;26.00;3.90;;;;;;;;;;5011377;28;20120;-62
2022/01/03 13:03:25;;;;;;;16.10;3.20;;;;;;;;;;5011601;28;20120;-61
2022/01/03 13:06:06;;;;;;;32.42;4.03;;;;;;;;;;5027913;28;20084;-61
2022/01/03 13:08:36;;;;;;;25.42;4.70;;;;;;;;;;5027637;28;20274;-61
2022/01/03 13:11:08;;;;;;;26.58;4.25;;;;;;;;;;5028052;28;20049;-60
2022/01/03 13:13:34;;;;;;;28.02;4.18;;;;;;;;;;5027816;28;20458;-61
2022/01/03 13:16:16;;;;;;;25.10;3.97;;;;;;;;;;5027887;28;20033;-61
2022/01/03 13:18:52;;;;;;;26.37;4.77;;;;;;;;;;5071161;28;20067;-60
2022/01/03 13:21:19;;;;;;;31.05;5.25;;;;;;;;;;5090351;28;20039;-61
2022/01/03 13:23:55;;;;;;;19.05;3.85;;;;;;;;;;5088772;28;20039;-61
2022/01/03 13:26:22;;;;;;;21.45;3.15;;;;;;;;;;5089942;28;20060;-61
2022/01/03 13:28:49;;;;;;;25.48;3.80;;;;;;;;;;5090067;28;20429;-61
2022/01/03 13:31:15;;;;;;;25.45;3.67;;;;;;;;;;5090316;28;20039;-60
2022/01/03 13:33:41;;;;;;;27.02;4.22;;;;;;;;;;5090056;28;20046;-61
2022/01/03 13:36:07;;;;;;;26.05;3.45;;;;;;;;;;5088913;28;20055;-62
2022/01/03 13:38:34;;;;;;;25.80;4.38;;;;;;;;;;5092414;28;20040;-62
2022/01/03 13:41:13;;;;;;;27.77;4.38;;;;;;;;;;5093836;28;20090;-60
2022/01/03 13:43:45;;;;;;;28.80;4.72;;;;;;;;;;5093480;28;20089;-60
2022/01/03 13:51:22;;;;;;;27.30;3.92;;;;;;;;;;5093578;28;20052;-60
2022/01/03 13:53:51;;;;;;;23.00;3.88;;;;;;;;;;5093306;28;20405;-61
2022/01/03 13:56:18;;;;;;;29.02;4.10;;;;;;;;;;5092138;28;20097;-60
2022/01/03 13:58:45;;;;;;;25.40;3.50;;;;;;;;;;5093303;28;20540;-63
2022/01/03 14:01:11;;;;;;;31.83;4.18;;;;;;;;;;5093473;28;20409;-61
2022/01/03 14:03:39;;;;;;;24.17;3.65;;;;;;;;;;5093081;28;20062;-62
2022/01/03 14:06:23;;;;;;;24.55;4.60;;;;;;;;;;5093418;28;20059;-61
2022/01/03 14:08:51;;;;;;;24.10;2.97;;;;;;;;;;5093232;28;20432;-59
2022/01/03 14:11:19;;;;;;;24.15;3.13;;;;;;;;;;5093366;28;20047;-60
2022/01/03 14:13:45;;;;;;;28.13;4.90;;;;;;;;;;5093091;28;20076;-61
2022/01/03 14:16:12;;;;;;;32.58;3.95;;;;;;;;;;5092853;28;20036;-62
2022/01/03 14:18:40;;;;;;;27.02;4.10;;;;;;;;;;5093149;28;20047;-60
2022/01/03 14:21:07;;;;;;;23.40;3.90;;;;;;;;;;5093215;28;20523;-62
2022/01/03 14:23:33;;;;;;;28.17;4.00;;;;;;;;;;5093273;28;20044;-61
2022/01/03 14:26:16;;;;;;;26.50;3.95;;;;;;;;;;5091605;28;20670;-63
2022/01/03 14:28:41;;;;;;;;;;;10.50;99.90;;;;;;5093158;28;20453;-60
2022/01/03 14:31:09;;;;;;;35.92;4.55;;;;;;;;;;5093053;28;20370;-59
2022/01/03 14:33:39;;;;;;;21.63;4.13;;;;;;;;;;5093000;28;20440;-61
2022/01/03 14:36:15;;;;;;;24.73;4.57;;;;;;;;;;5092531;28;20524;-62
2022/01/03 14:38:43;;;;;;;28.92;5.40;;;;;;;;;;5092827;28;20036;-60
2022/01/03 14:41:22;;;;;;;32.63;4.45;;;;;;;;;;5091535;28;20142;-61
2022/01/03 14:44:14;;;;;;;31.67;4.32;;;;;;;;;;5092379;28;20092;-61
2022/01/03 14:46:44;;;;;;;27.37;3.60;;;;;;;;;;5089728;28;20056;-61
2022/01/03 14:49:20;;;;;;;31.20;4.30;;;;;;;;;;5089591;28;20294;-61
2022/01/03 14:51:49;;;;;;;22.63;3.50;;;;;;;;;;5092380;28;20499;-61
2022/01/03 14:54:20;;;;;;;20.48;3.38;;;;;;;;;;5092561;28;20036;-61
2022/01/03 14:56:47;;;;;;;32.67;4.72;;;;;;;;;;5092236;28;20536;-60
2022/01/03 14:59:16;;;;;;;34.03;5.38;;;;;;;;;;5092154;28;20039;-60
2022/01/03 15:01:44;;;;;;;29.23;3.70;;;;;;;;;;5092312;28;20085;-60